Timeline UpdatesTrip UpdatesNews PostsPvt Posts♥♥Travel TipsAdmin PostsConv PostsFollowed PostsChat RequestsBlog PostsPNR Posts

Disclaimer
Search
 
 
Tue Oct 21, 2014 19:05:19 ISTHomeTrainsΣChainsAtlasPNRForumGalleryNewsFAQTripsMembersLoginFeedback
No Recent News for this Train
Other Trains in the News **new
Latest...
running with Inspection Car is of NR [0611/A]; since 2 weeks
Wed Jul 23, 2014 (11:12AM)
⇐ Return Journey: Train# 13483

13484/Farakka Express (via Faizabad)

Time-Table HAS CHANGED.
Sep 03 2014 (1:27PM)
Change Departure Station:
Change Arrival Station:
Post a Train Travel TipPost a Train Travel Tip **new
Post a Comment/Question/Picture/VideoPost a Comment/Question/Picture/Video
Pantry/Catering
✓ Pantry Car Avbl
✓ Catering Avbl
RSA - Rake Sharing
13413/13414/04031/04032
Rake/Coach Composition
LOCO-SLR-UR-UR-S9-S8-S7-S6-S5-S4-S3-S2-S1-PC-B1-A1-UR-UR-UR-UR-UR-SLR-HPCV http://indiarailinfo.com/blog/post/1168926 by manu
Loco
DLI - LKO -> GZB[NR] WAP-5/7; LKO - MLDT ->...
Read more...
LKO[NR] WDM-3D/3A
News    PNR    Forum    Time-Table    Availability    Fare Chart    Map    Arr/Dep History    Trips    Gallery    ΣChains    X/O    Timeline    
Travel Time: 10h 28m    20 halts    Distance: 404 km    Avg Speed: 38 km/hr
Type: Mail/Express
Zone: ER/Eastern
Departs @ 20:52 (Avg 1h 10m late)
Platform# 2
 M W FS
Patna Junction/PNBE 
Arrives @ 07:20 +1 night (Avg 1h 42m late)
Platform# ???
S T T S
Malda Town/MLDT 

20 halts. 94 intermediate Stations between Patna Junction and Malda Town

Show ALL intermediate Stations  Show Old Time-Table

#TrkCodeStation NameX/OArrivesAvgDepartsAvgHaltPFDay#KmSpeedElevZoneAddress
1/==/DLIOld Delhi Junction (16)  -21:50 21:45+171-1058.831219mNRNear Chandni Chowk Metro Station, Delhi NCT
2/==/GZBGhaziabad Junction (6)  22:26 22:24+322:28 22:26+32m21-1038.864217mNRGhaziabad, Uttar Pradesh
3/==/KRJKhurja Junction (4)  23:25+2723:28+313m--1-976.142199mNCRBulandshahr, Uttar Pradesh
4/==/ALJNAligarh Junction (4)  00:30+2900:35+315m22-932.686192mNCRAligarh, Uttar Pradesh
5/==/HRSHathras Junction (3)X  00:56+4101:01+405m--2-902.459183mNCRMahamaya Nagar(05722-242803), Uttar Pradesh
6/==/TDLTundla Junction (5)X  01:50+4101:58+438m32-854.550167mNCRDistt.Firozabad, Uttar Pradesh
7/==/FZDFirozabad (4)X  02:18+4502:20+492m22-837.963164mNCRFirozabad, Uttar Pradesh
8/==/SKBShikohabad Junction (4)X  02:39+4702:41+502m22-818.085166mNCRDistrict Firozabad, Uttar Pradesh
9/==/ETWEtawah (5)X  03:20+5203:22+542m32-762.665154mNCRDistt. Etawah, Uttar Pradesh
10/==/CNBKanpur Central (10)X  05:30+4505:45+4215m72-623.347128mNCRKANPUR-208 001, Uttar Pradesh
11/==/ONUnnao Junction (5)  06:06 06:07+1:0306:08 06:09+1:052m--2-605.946129mNRUnnao, Uttar Pradesh
12/==/LKOLucknow Charbagh NR (9)X  07:20+5207:45+5425m--2-551.349123mNR226004, Uttar Pradesh
13/==/BBKBarabanki Junction (4)  08:20+1:1008:22+1:132m--2-522.852122mNRPin-225001, Uttar Pradesh
14|--|DYDDaryabad  09:06+1:1109:07+1:111m--2-484.769116mNRFaizabad Rd, Uttar Pradesh
15|--|RDLRudauli (2)  09:27+1:1509:28+1:151m--2-461.672112mNRRudauli, Uttar Pradesh
16|--|SLWSohwal  09:47+1:1809:48+1:181m--2-438.842107mNRFaizabad Rd, Uttar Pradesh
17|--|FDFaizabad Junction (5)X  10:10+1:1810:15+1:205m--2-423.513104mNRFaizabad, Uttar Pradesh
18|--|ACNDAcharya Narendra Dev Nagar  10:25+1:2010:26+1:201m--2-421.312104mNRFaizabad, Uttar Pradesh
19|--|AYAyodhya Junction (3)X  10:48+1:0710:49+1:091m12-416.86698mNRAyodhya, Uttar Pradesh
20|--|GGJGoshainGanj (3)  11:18+1:0911:19+1:091m--2-385.17498mNRGoshainganj, Uttar Pradesh
21|--|ABPAkbarpur Junction (2)  11:37+1:1311:39+1:132m--2-362.97292mNRAkbarpur, Uttar Pradesh
22|--|MLPRMalipur (2)  11:55+1:1911:56+1:191m--2-343.86292mNRMalipur, Uttar Pradesh
23|--|SHGShahganj Junction (4)X  12:20+1:2312:25 12:27+1:215 7m--2-318.85390mNRShahganj, Uttar Pradesh
24|--|JNUJaunpur Junction (5)X  13:05+1:2213:07+1:252m12-285.52383mNRJaunpur, Uttar Pradesh
25|--|ZBDZafarabad Junction (4)X  13:24+1:2013:25+1:211m--2-279.03683mNRNational Highway 56, Uttar Pradesh
26/==/JLLJalalGanj (2)  13:45+1:1813:46+1:201m--2-267.03487mNRJalalganj Railway Station, Uttar Pradesh
27/==/BSBVaranasi Junction (9)X  15:00 14:55+5715:15+5815 20m82-227.81882mNRVaranasi 221002, Uttar Pradesh
28/==/MGSMughal Sarai Junction (8)  16:10+5116:25+5115m--2-211.47483mECRDistt: Chandauli Pin 232101, Uttar Pradesh
29/==/ZNAZamania (2)X  17:01+1:0917:03+1:092m--2-167.16777mECRGhazipur, Uttar Pradesh
30/==/DLNDildarnagar Junction (2)X  17:15+1:1017:17+1:112m--2-153.65272mECRDildarnagar, Uttar Pradesh
31/==/BWHBhadaura (2)X17:26+1:1117:28+1:112m--2-145.86169mECRGhazipur, Uttar Pradesh
32/==/GMRGahmar (2)X  17:36+1:0717:38+1:082m--2-137.67968mECRDistt: Ghazipur, Uttar Pradesh
33/==/CSAChausa (2)O  17:45+1:1617:47+1:162m--2-128.46068mECRState Highway 14, Bihar
34/==/BXRBuxar (3)X  17:58+1:0818:03+1:065m--2-117.48967mECRBuxar, Bihar
35/==/DUREDumraon (3)  18:14+1:1118:16+1:112m--2-101.18070mECRDumraon, Bihar
36/==/RPRRaghunathpur (4)X  18:28+1:2018:30+1:202m--2-85.17469mECRRaghunathpur, Bihar
37/==/BEABihiya (3)  18:42+1:2618:44+1:262m--2-70.47167mECRBehea, Bihar
38/==/ARAAra Junction (3)X  19:02+1:1519:07+1:175m--2-48.98963mECRDistt: Bhojpur Ph 06182-233411, Bihar
39/==/BTABihta (2)X  19:22+1:1819:24+1:202m--2-26.73462mECRDistt: Patna, Bihar
40/==/DNRDanapur (5)X  19:55+1:3520:05+1:1710m--2-9.41558mECRKhagaul, Bihar
41/==/PNBEPatna Junction (10)»X  20:42+1:0820:52+1:1010m220.02257mECRPatna 800001, Bihar
42/==/RJPBRajendra Nagar Bihar (4)  20:59+1:2221:01+1:222m--22.63455mECRPatna 800001, Bihar
43/==/PNCPatna Saheb (3)X  21:14+1:3821:16+1:402m--29.94159mECRPatna 800008, Bihar
44/==/FUTFatwa (6)  21:34+1:3721:36+1:392m--222.15653mECRPatna, Bihar
45/==/BKPBakhtiyarpur Junction (5)O  22:01+1:1622:05+1:164m--245.43751mECRPatna, Bihar
46/==/BARHBarh (3)  22:34+1:0822:36+1:082m--263.57049mECRBarh, Bihar
47/==/MKAMokama Junction (4)  22:58+1:1223:03+1:105m--289.27148mECRPatna, Bihar
48/==/BRYABarhiya (3)  23:18+1:1923:20+1:192m--2107.02247mECRBarahiya, Bihar
49/==/KIULKiul Junction (5)  00:05+1:0000:10+1:005m--3123.46653mECRDist. Lakhisarai, Bihar
50|==|AHAAbhaipur (3)  00:31+1:0900:33+1:092m--3146.46052mERAbhaipur, Bihar
51|=-|JMPJamalpur Junction (4)  00:55+1:1701:05+1:2010m13168.26159mERDist: Munger 06344-243101, Bihar
52|==|BUPBariarpur (3)  01:16+1:2701:18+1:272m--3179.45442mERMunger, Bihar
53|==|SGGSultanGanj (3)  01:38+1:2801:40+1:302m--3197.34742mERSultanganj, Bihar
54|==!BGPBhagalpur Junction (6)  02:12+1:1202:22+1:1510m--3222.35649mERBhagalpur, Bihar
55!==!SBOSabaur (3)  02:30+1:3302:32+1:362m--3229.86142mERSabour, Bihar
56!==!CLGKahalgaon (2)  02:54+1:5002:56+1:522m13252.33744mERBhagalpur, Bihar
57!==!PPTPirpainti (2)  03:29+1:5303:31+1:552m--3272.72653mERBhagalpur, Bihar
58!==!SBGSahibganj Junction (3)X  04:25+1:3904:33+1:488m13296.28138mERSahibganj, Jharkhand
59!==|TPHTinpahar Junction (3)X  05:00 05:01+2:1405:02 05:03+2:142m23334.03545mERBamangawan, Jharkhand
60|==|BHWBarharwa Junction (3)  05:32+2:0605:36+2:084m23350.74036mERBarharwa, Jharkhand
61%==%NFKNew Farakka Junction (3)X  06:03+2:1006:08+2:055m23368.72932mERDist - Murshidabad, West Bengal
62%==%MLDTMalda Town (5)•  07:20+1:42---3403.8-30mERDist - Malda, West Bengal
Scroll to Top
Scroll to Bottom